sensor_id;sensor_type;location;lat;lon;timestamp;P1;durP1;ratioP1;P2;durP2;ratioP2
50689;SDS011;71367;48.298;11.238;2024-03-22T00:13:17;27.77;;;14.65;;
50689;SDS011;71367;48.298;11.238;2024-03-22T00:28:22;30.52;;;14.68;;
50689;SDS011;71367;48.298;11.238;2024-03-22T00:43:25;25.75;;;13.40;;
50689;SDS011;71367;48.298;11.238;2024-03-22T00:58:28;30.83;;;15.23;;
50689;SDS011;71367;48.298;11.238;2024-03-22T01:13:32;31.10;;;15.43;;
50689;SDS011;71367;48.298;11.238;2024-03-22T01:28:35;33.53;;;14.38;;
50689;SDS011;71367;48.298;11.238;2024-03-22T01:43:38;30.77;;;14.85;;
50689;SDS011;71367;48.298;11.238;2024-03-22T01:58:41;40.45;;;17.92;;
50689;SDS011;71367;48.298;11.238;2024-03-22T02:13:45;35.97;;;17.25;;
50689;SDS011;71367;48.298;11.238;2024-03-22T02:28:48;31.00;;;16.50;;
50689;SDS011;71367;48.298;11.238;2024-03-22T02:43:51;32.67;;;16.77;;
50689;SDS011;71367;48.298;11.238;2024-03-22T02:58:54;29.35;;;14.48;;
50689;SDS011;71367;48.298;11.238;2024-03-22T03:13:57;33.85;;;16.80;;
50689;SDS011;71367;48.298;11.238;2024-03-22T03:29:00;43.45;;;18.05;;
50689;SDS011;71367;48.298;11.238;2024-03-22T03:44:03;37.50;;;15.65;;
50689;SDS011;71367;48.298;11.238;2024-03-22T03:59:07;41.35;;;18.25;;
50689;SDS011;71367;48.298;11.238;2024-03-22T04:14:10;45.25;;;18.42;;
50689;SDS011;71367;48.298;11.238;2024-03-22T04:29:13;59.20;;;22.48;;
50689;SDS011;71367;48.298;11.238;2024-03-22T04:44:16;43.90;;;16.77;;
50689;SDS011;71367;48.298;11.238;2024-03-22T04:59:19;34.13;;;14.70;;
50689;SDS011;71367;48.298;11.238;2024-03-22T05:14:22;42.88;;;19.85;;
50689;SDS011;71367;48.298;11.238;2024-03-22T05:29:25;33.13;;;14.90;;
50689;SDS011;71367;48.298;11.238;2024-03-22T05:44:29;37.50;;;15.75;;
50689;SDS011;71367;48.298;11.238;2024-03-22T05:59:32;35.63;;;16.40;;
50689;SDS011;71367;48.298;11.238;2024-03-22T06:14:35;38.20;;;18.02;;
50689;SDS011;71367;48.298;11.238;2024-03-22T06:29:38;46.13;;;22.63;;
50689;SDS011;71367;48.298;11.238;2024-03-22T06:44:42;48.40;;;21.15;;
50689;SDS011;71367;48.298;11.238;2024-03-22T06:59:45;51.65;;;26.48;;
50689;SDS011;71367;48.298;11.238;2024-03-22T07:14:48;47.72;;;24.17;;
50689;SDS011;71367;48.298;11.238;2024-03-22T07:29:51;40.47;;;21.42;;
50689;SDS011;71367;48.298;11.238;2024-03-22T07:44:54;31.23;;;19.63;;
50689;SDS011;71367;48.298;11.238;2024-03-22T07:59:57;26.02;;;18.05;;
50689;SDS011;71367;48.298;11.238;2024-03-22T08:15:00;18.52;;;12.07;;
50689;SDS011;71367;48.298;11.238;2024-03-22T08:30:05;15.77;;;11.82;;
50689;SDS011;71367;48.298;11.238;2024-03-22T08:45:11;15.52;;;11.05;;
50689;SDS011;71367;48.298;11.238;2024-03-22T09:00:14;14.90;;;11.45;;
50689;SDS011;71367;48.298;11.238;2024-03-22T09:15:17;15.43;;;11.02;;
50689;SDS011;71367;48.298;11.238;2024-03-22T09:30:21;17.48;;;10.70;;
50689;SDS011;71367;48.298;11.238;2024-03-22T09:45:24;17.95;;;11.73;;
50689;SDS011;71367;48.298;11.238;2024-03-22T10:00:29;17.75;;;11.13;;
50689;SDS011;71367;48.298;11.238;2024-03-22T10:15:33;14.60;;;10.18;;
50689;SDS011;71367;48.298;11.238;2024-03-22T10:30:36;17.73;;;10.65;;
50689;SDS011;71367;48.298;11.238;2024-03-22T10:45:43;15.23;;;9.75;;
50689;SDS011;71367;48.298;11.238;2024-03-22T11:00:53;15.88;;;9.98;;
50689;SDS011;71367;48.298;11.238;2024-03-22T11:16:00;13.65;;;8.98;;
50689;SDS011;71367;48.298;11.238;2024-03-22T11:31:03;12.02;;;7.57;;
50689;SDS011;71367;48.298;11.238;2024-03-22T11:46:06;11.73;;;7.72;;
50689;SDS011;71367;48.298;11.238;2024-03-22T12:01:09;10.52;;;6.57;;
50689;SDS011;71367;48.298;11.238;2024-03-22T12:16:12;9.20;;;5.80;;
50689;SDS011;71367;48.298;11.238;2024-03-22T12:31:16;7.57;;;4.90;;
50689;SDS011;71367;48.298;11.238;2024-03-22T12:46:46;8.63;;;4.28;;
50689;SDS011;71367;48.298;11.238;2024-03-22T13:01:49;6.93;;;3.65;;
50689;SDS011;71367;48.298;11.238;2024-03-22T13:16:52;6.78;;;3.90;;
50689;SDS011;71367;48.298;11.238;2024-03-22T13:31:55;7.05;;;4.15;;
50689;SDS011;71367;48.298;11.238;2024-03-22T13:46:58;7.88;;;4.05;;
50689;SDS011;71367;48.298;11.238;2024-03-22T14:02:01;8.23;;;4.28;;
50689;SDS011;71367;48.298;11.238;2024-03-22T14:17:05;7.57;;;4.30;;
50689;SDS011;71367;48.298;11.238;2024-03-22T14:32:09;10.82;;;3.65;;
50689;SDS011;71367;48.298;11.238;2024-03-22T14:47:12;6.15;;;3.63;;
50689;SDS011;71367;48.298;11.238;2024-03-22T15:02:15;4.43;;;3.08;;
50689;SDS011;71367;48.298;11.238;2024-03-22T15:17:18;3.92;;;1.70;;
50689;SDS011;71367;48.298;11.238;2024-03-22T15:32:23;4.40;;;2.00;;
50689;SDS011;71367;48.298;11.238;2024-03-22T15:47:27;4.20;;;2.33;;
50689;SDS011;71367;48.298;11.238;2024-03-22T16:02:30;4.38;;;1.60;;
50689;SDS011;71367;48.298;11.238;2024-03-22T16:17:34;2.72;;;1.30;;
50689;SDS011;71367;48.298;11.238;2024-03-22T16:32:37;3.53;;;1.73;;
50689;SDS011;71367;48.298;11.238;2024-03-22T16:47:40;2.95;;;1.50;;
50689;SDS011;71367;48.298;11.238;2024-03-22T17:02:43;7.13;;;2.10;;
50689;SDS011;71367;48.298;11.238;2024-03-22T17:17:47;2.65;;;1.23;;
50689;SDS011;71367;48.298;11.238;2024-03-22T17:32:50;2.90;;;1.60;;
50689;SDS011;71367;48.298;11.238;2024-03-22T17:47:53;2.30;;;1.40;;
50689;SDS011;71367;48.298;11.238;2024-03-22T18:02:56;6.07;;;1.60;;
50689;SDS011;71367;48.298;11.238;2024-03-22T18:17:59;3.83;;;1.90;;
50689;SDS011;71367;48.298;11.238;2024-03-22T18:33:03;4.40;;;1.98;;
50689;SDS011;71367;48.298;11.238;2024-03-22T18:48:07;6.68;;;2.65;;
50689;SDS011;71367;48.298;11.238;2024-03-22T19:03:10;4.03;;;1.90;;
50689;SDS011;71367;48.298;11.238;2024-03-22T19:18:13;5.13;;;2.33;;
50689;SDS011;71367;48.298;11.238;2024-03-22T19:33:16;5.72;;;3.10;;
50689;SDS011;71367;48.298;11.238;2024-03-22T19:48:20;6.57;;;3.80;;
50689;SDS011;71367;48.298;11.238;2024-03-22T20:03:23;8.90;;;4.90;;
50689;SDS011;71367;48.298;11.238;2024-03-22T20:18:26;5.35;;;2.97;;
50689;SDS011;71367;48.298;11.238;2024-03-22T20:33:29;6.57;;;2.60;;
